Time;durP1;ratioP1;P1;durP2;ratioP2;P2;SDS_P1;SDS_P2;PMS_P1;PMS_P2;Temp;Humidity;BMP_temperature;BMP_pressure;BME280_temperature;BME280_humidity;BME280_pressure;Samples;Min_cycle;Max_cycle;Signal;HPM_P1;HPM_P2
2021/07/22 00:00:17;;;;;;;10.93;9.55;;;22.90;65.30;;;;;;10437187;28;20420;-58
2021/07/22 00:05:19;;;;;;;10.93;9.02;;;22.90;65.40;;;;;;10454598;28;20485;-58
2021/07/22 00:10:21;;;;;;;10.07;9.07;;;22.90;65.40;;;;;;10454109;28;20460;-59
2021/07/22 00:15:21;;;;;;;9.98;8.50;;;22.90;65.60;;;;;;10454412;28;20136;-59
2021/07/22 00:20:22;;;;;;;11.05;9.40;;;22.90;65.60;;;;;;10442991;28;20144;-58
2021/07/22 00:25:22;;;;;;;11.57;9.40;;;22.90;65.70;;;;;;10454028;28;20040;-58
2021/07/22 00:30:23;;;;;;;10.45;9.35;;;22.90;65.60;;;;;;10454075;28;20066;-58
2021/07/22 00:35:24;;;;;;;10.52;9.45;;;22.80;65.60;;;;;;10457007;28;20071;-59
2021/07/22 00:40:25;;;;;;;10.45;9.05;;;22.80;65.60;;;;;;10461228;28;20041;-59
2021/07/22 00:45:27;;;;;;;11.18;9.35;;;22.80;65.70;;;;;;10461130;28;20090;-58
2021/07/22 00:50:30;;;;;;;10.60;8.75;;;22.80;65.60;;;;;;10443089;28;20044;-58
2021/07/22 00:55:30;;;;;;;10.18;9.02;;;22.80;66.30;;;;;;10460776;28;20025;-58
2021/07/22 01:00:31;;;;;;;8.98;7.63;;;22.90;65.50;;;;;;10460429;28;20098;-58
2021/07/22 01:05:32;;;;;;;10.63;9.45;;;22.90;66.30;;;;;;10460212;28;20041;-58
2021/07/22 01:10:33;;;;;;;10.55;8.68;;;22.90;67.70;;;;;;10458929;28;20033;-57
2021/07/22 01:15:33;;;;;;;10.70;8.82;;;22.90;67.90;;;;;;10460138;28;20090;-58
2021/07/22 01:20:34;;;;;;;11.10;9.00;;;22.90;68.10;;;;;;10447886;28;20029;-58
2021/07/22 01:25:35;;;;;;;9.75;8.75;;;22.90;68.10;;;;;;10441752;28;20029;-58
2021/07/22 01:30:35;;;;;;;10.40;8.85;;;22.90;68.00;;;;;;10459530;28;20121;-58
2021/07/22 01:35:37;;;;;;;9.95;8.88;;;22.90;68.30;;;;;;10441420;28;20074;-58
2021/07/22 01:40:38;;;;;;;10.30;8.73;;;22.90;68.40;;;;;;10458994;28;20053;-59
2021/07/22 01:45:39;;;;;;;11.38;9.38;;;22.90;68.90;;;;;;10457812;28;20076;-58
2021/07/22 01:50:39;;;;;;;10.40;9.35;;;22.90;68.80;;;;;;10440765;28;20121;-58
2021/07/22 01:55:40;;;;;;;10.20;9.00;;;22.90;68.50;;;;;;10441774;28;20068;-58
2021/07/22 02:00:41;;;;;;;10.88;9.25;;;22.90;68.60;;;;;;10458212;28;20124;-58
2021/07/22 02:05:41;;;;;;;10.27;9.18;;;22.80;68.20;;;;;;10440494;28;20452;-58
2021/07/22 02:10:42;;;;;;;9.25;8.25;;;22.80;68.40;;;;;;10457620;28;20056;-58
2021/07/22 02:15:43;;;;;;;11.18;9.63;;;22.80;68.30;;;;;;10457528;28;20017;-58
2021/07/22 02:20:43;;;;;;;9.73;8.73;;;22.80;68.20;;;;;;10463576;28;20057;-58
2021/07/22 02:25:44;;;;;;;9.65;8.13;;;22.80;68.00;;;;;;10457453;28;20033;-59
2021/07/22 02:30:44;;;;;;;9.63;8.43;;;22.80;68.00;;;;;;10456961;28;20063;-58
2021/07/22 02:35:45;;;;;;;11.30;8.88;;;22.80;67.90;;;;;;10456901;28;20501;-59
2021/07/22 02:40:46;;;;;;;10.98;8.57;;;22.80;67.90;;;;;;10456289;28;20068;-58
2021/07/22 02:45:46;;;;;;;10.20;9.18;;;22.80;67.80;;;;;;10438585;28;20068;-58
2021/07/22 02:50:47;;;;;;;8.85;7.95;;;22.80;67.70;;;;;;10456045;28;20136;-58
2021/07/22 02:55:48;;;;;;;9.25;8.27;;;22.80;67.60;;;;;;10456442;28;20591;-58
2021/07/22 03:00:48;;;;;;;9.63;8.70;;;22.80;67.50;;;;;;10455749;28;20048;-58
2021/07/22 03:05:49;;;;;;;10.02;9.02;;;22.80;67.60;;;;;;10455884;28;20075;-58
2021/07/22 03:10:50;;;;;;;8.77;7.53;;;22.80;67.70;;;;;;10437717;28;20060;-59
2021/07/22 03:15:51;;;;;;;9.43;8.40;;;22.70;67.50;;;;;;10455394;28;20072;-58
2021/07/22 03:20:51;;;;;;;9.60;8.38;;;22.70;67.50;;;;;;10441062;28;20064;-58
2021/07/22 03:25:52;;;;;;;9.50;8.02;;;22.70;67.50;;;;;;10454820;28;20056;-58
2021/07/22 03:30:53;;;;;;;8.73;7.82;;;22.70;67.30;;;;;;10454880;28;20120;-58
2021/07/22 03:35:53;;;;;;;10.27;9.10;;;22.70;67.50;;;;;;10454660;28;20024;-58
2021/07/22 03:40:54;;;;;;;10.63;9.15;;;22.70;67.40;;;;;;10452466;28;20068;-59
2021/07/22 03:45:59;;;;;;;10.32;8.13;;;22.70;67.50;;;;;;10452805;28;20021;-58
2021/07/22 03:50:59;;;;;;;9.30;8.18;;;22.60;67.40;;;;;;10436535;28;20103;-58
2021/07/22 03:56:01;;;;;;;8.40;7.32;;;22.70;67.30;;;;;;10454926;28;20531;-58
2021/07/22 04:01:02;;;;;;;9.07;7.90;;;22.70;67.30;;;;;;10454654;28;20037;-58
2021/07/22 04:06:03;;;;;;;9.13;8.23;;;22.70;67.40;;;;;;10454557;28;20108;-58
2021/07/22 04:11:04;;;;;;;10.68;8.60;;;22.70;67.30;;;;;;10458243;28;20119;-58
2021/07/22 04:16:05;;;;;;;8.82;7.72;;;22.70;67.30;;;;;;10462419;28;20028;-58
2021/07/22 04:21:05;;;;;;;9.02;8.10;;;22.70;67.20;;;;;;10451043;28;20033;-58
2021/07/22 04:26:06;;;;;;;9.52;8.13;;;22.70;67.20;;;;;;10460610;28;20842;-58
2021/07/22 04:31:07;;;;;;;8.63;7.72;;;22.60;67.20;;;;;;10442831;28;20132;-58
2021/07/22 04:36:08;;;;;;;9.48;8.50;;;22.60;67.20;;;;;;10443065;28;20033;-58
2021/07/22 04:41:09;;;;;;;10.55;8.57;;;22.60;67.10;;;;;;10460312;28;20075;-58
2021/07/22 04:46:10;;;;;;;8.90;7.93;;;22.60;67.20;;;;;;10431490;28;20094;-58
2021/07/22 04:51:10;;;;;;;9.48;8.48;;;22.60;67.20;;;;;;10460270;28;20025;-57
2021/07/22 04:56:11;;;;;;;9.75;8.75;;;22.60;67.20;;;;;;10459213;28;20052;-58
2021/07/22 05:01:13;;;;;;;10.90;7.43;;;22.60;67.30;;;;;;10458904;28;20123;-58
2021/07/22 05:06:14;;;;;;;11.20;8.60;;;22.70;67.60;;;;;;10459441;28;20512;-57
2021/07/22 05:11:15;;;;;;;10.80;7.63;;;22.70;67.80;;;;;;10459308;28;20067;-57
2021/07/22 05:16:16;;;;;;;11.20;8.35;;;22.70;67.80;;;;;;10459197;28;20485;-57
2021/07/22 05:21:17;;;;;;;13.60;8.23;;;22.80;67.90;;;;;;10459146;28;20068;-57
2021/07/22 05:26:17;;;;;;;12.43;8.20;;;22.80;68.00;;;;;;10459271;28;20044;-58
2021/07/22 05:31:18;;;;;;;11.52;7.88;;;22.80;68.10;;;;;;10459131;28;20043;-58
2021/07/22 05:36:19;;;;;;;15.05;7.88;;;22.80;68.00;;;;;;10459028;28;20117;-56
2021/07/22 05:41:19;;;;;;;11.15;7.22;;;22.80;68.30;;;;;;10458512;28;20073;-57
2021/07/22 05:46:21;;;;;;;11.35;7.03;;;22.80;67.90;;;;;;10458456;28;20033;-58
2021/07/22 05:51:22;;;;;;;17.05;8.57;;;22.80;68.00;;;;;;10423608;28;20025;-58
2021/07/22 05:56:22;;;;;;;12.73;7.43;;;22.80;68.00;;;;;;10457738;28;20403;-58
2021/07/22 06:01:23;;;;;;;14.90;7.57;;;22.80;68.00;;;;;;10457531;28;20048;-58
2021/07/22 06:06:24;;;;;;;12.13;8.45;;;22.70;67.80;;;;;;10457266;28;20018;-59
2021/07/22 06:11:24;;;;;;;12.57;8.18;;;22.70;68.30;;;;;;10456262;28;20104;-59
2021/07/22 06:16:26;;;;;;;9.10;7.22;;;22.70;68.30;;;;;;10453839;28;20065;-59
2021/07/22 06:21:26;;;;;;;10.40;8.05;;;22.70;68.20;;;;;;10464088;28;20106;-59
2021/07/22 06:26:27;;;;;;;8.80;7.90;;;22.70;68.20;;;;;;10456487;28;20158;-59
2021/07/22 06:31:28;;;;;;;13.10;9.07;;;22.70;67.80;;;;;;10433198;28;20051;-59
2021/07/22 06:36:28;;;;;;;9.73;7.25;;;22.70;67.90;;;;;;10433194;28;20075;-58
2021/07/22 06:41:29;;;;;;;9.40;8.38;;;22.70;68.20;;;;;;10449373;28;20489;-59
2021/07/22 06:46:30;;;;;;;10.10;7.65;;;22.70;68.30;;;;;;10447105;28;20052;-58
2021/07/22 06:51:30;;;;;;;9.10;7.53;;;22.70;68.30;;;;;;10448041;28;20029;-58
2021/07/22 06:56:31;;;;;;;11.55;7.85;;;22.70;68.40;;;;;;10449532;28;20114;-59
2021/07/22 07:01:33;;;;;;;10.23;7.97;;;22.70;68.20;;;;;;10448587;28;20086;-58
2021/07/22 07:06:36;;;;;;;10.38;7.15;;;22.70;67.90;;;;;;10449099;28;20024;-59
2021/07/22 07:11:37;;;;;;;8.43;6.63;;;22.70;67.50;;;;;;10448860;28;20090;-58
2021/07/22 07:16:41;;;;;;;10.85;7.97;;;22.70;67.30;;;;;;10448275;28;20043;-58
2021/07/22 07:21:41;;;;;;;8.95;7.32;;;22.70;67.30;;;;;;10454508;28;20036;-59
2021/07/22 07:26:42;;;;;;;10.82;7.88;;;22.70;67.30;;;;;;10447901;28;20155;-56
2021/07/22 07:31:43;;;;;;;12.02;7.90;;;22.70;67.30;;;;;;10448254;28;20032;-55
2021/07/22 07:36:44;;;;;;;9.93;7.28;;;22.70;67.40;;;;;;10448305;28;20102;-54
2021/07/22 07:41:45;;;;;;;9.48;6.88;;;22.70;68.00;;;;;;10405575;28;20080;-56
2021/07/22 07:46:45;;;;;;;9.88;6.43;;;22.70;67.40;;;;;;10397287;28;20116;-55
2021/07/22 07:51:46;;;;;;;10.00;7.97;;;22.80;67.50;;;;;;10374518;28;20065;-54
2021/07/22 07:56:50;;;;;;;8.93;6.63;;;22.80;67.50;;;;;;10374349;28;20101;-53
2021/07/22 08:01:51;;;;;;;8.25;7.15;;;22.80;67.40;;;;;;10374101;28;20030;-55
2021/07/22 08:06:51;;;;;;;9.27;6.90;;;22.80;67.30;;;;;;10373614;28;20482;-54
2021/07/22 08:11:52;;;;;;;8.23;6.57;;;22.80;67.30;;;;;;10373689;28;20057;-56
2021/07/22 08:16:53;;;;;;;8.70;7.00;;;22.80;67.10;;;;;;10373206;28;20022;-55
2021/07/22 08:21:53;;;;;;;9.27;6.75;;;22.80;67.00;;;;;;10379844;28;20068;-55
2021/07/22 08:26:54;;;;;;;9.73;6.63;;;22.80;67.00;;;;;;10372862;28;20070;-54
2021/07/22 08:31:55;;;;;;;7.78;6.68;;;22.80;67.00;;;;;;10372749;28;20439;-55
2021/07/22 08:36:55;;;;;;;8.15;6.18;;;22.80;67.00;;;;;;10372782;28;20120;-55
2021/07/22 08:41:56;;;;;;;8.65;6.28;;;22.70;67.30;;;;;;10430302;28;20053;-55
2021/07/22 08:46:59;;;;;;;6.82;6.13;;;22.80;67.30;;;;;;10433822;28;20120;-56
2021/07/22 08:52:10;;;;;;;8.07;7.13;;;22.80;67.40;;;;;;10451712;28;20028;-55
2021/07/22 08:57:12;;;;;;;7.47;5.88;;;22.80;67.30;;;;;;10451376;28;20442;-55
2021/07/22 09:02:18;;;;;;;10.13;7.35;;;22.90;67.10;;;;;;10433660;28;20033;-55
2021/07/22 09:07:19;;;;;;;7.97;6.80;;;22.80;67.00;;;;;;10433750;28;20025;-56
2021/07/22 09:12:20;;;;;;;8.70;6.80;;;22.80;67.00;;;;;;10451302;28;20033;-56
2021/07/22 09:17:26;;;;;;;8.25;6.00;;;22.80;67.00;;;;;;10451152;28;20033;-56
2021/07/22 09:22:42;;;;;;;7.55;6.35;;;22.80;67.00;;;;;;10457785;28;20040;-55
2021/07/22 09:27:44;;;;;;;9.50;6.75;;;22.80;67.00;;;;;;10450211;28;20049;-54
2021/07/22 09:32:50;;;;;;;7.68;6.35;;;22.80;66.80;;;;;;10453220;28;20507;-54
2021/07/22 09:37:54;;;;;;;8.50;6.85;;;22.80;67.10;;;;;;10449409;28;20053;-53
2021/07/22 09:42:55;;;;;;;6.17;5.57;;;22.80;67.00;;;;;;10412801;28;1043369;-56
2021/07/22 09:48:10;;;;;;;6.97;6.28;;;22.80;67.00;;;;;;10451671;28;20662;-56
2021/07/22 09:53:13;;;;;;;6.95;5.90;;;22.80;66.90;;;;;;10438707;28;20104;-55
2021/07/22 09:58:14;;;;;;;9.30;6.82;;;22.80;67.00;;;;;;10451408;28;20090;-56
2021/07/22 10:03:21;;;;;;;6.45;5.50;;;22.80;67.00;;;;;;10452196;28;20833;-55
2021/07/22 10:08:23;;;;;;;7.20;5.90;;;22.80;67.10;;;;;;10432907;28;20041;-56
2021/07/22 10:13:32;;;;;;;7.68;5.72;;;22.80;67.20;;;;;;10450434;28;20049;-56
2021/07/22 10:18:36;;;;;;;10.82;6.20;;;22.80;67.10;;;;;;10433697;28;20036;-56
2021/07/22 10:23:38;;;;;;;7.05;5.97;;;22.80;67.10;;;;;;10439709;28;20039;-56
2021/07/22 10:28:40;;;;;;;7.95;5.82;;;22.90;67.20;;;;;;10420993;28;20045;-56
2021/07/22 10:33:44;;;;;;;5.97;5.38;;;22.90;67.20;;;;;;10434305;28;20050;-55
2021/07/22 10:38:48;;;;;;;7.03;5.47;;;22.90;67.30;;;;;;10432179;28;20110;-56
2021/07/22 10:43:49;;;;;;;8.70;6.45;;;22.90;67.20;;;;;;10450021;28;20376;-54
2021/07/22 10:48:50;;;;;;;8.65;5.95;;;22.90;67.20;;;;;;10449760;28;20041;-54
2021/07/22 10:53:53;;;;;;;7.45;5.47;;;22.90;67.20;;;;;;10446659;28;20112;-57
2021/07/22 10:58:56;;;;;;;7.90;5.57;;;22.90;67.10;;;;;;10441930;28;20044;-56
2021/07/22 11:03:56;;;;;;;7.43;6.03;;;22.90;67.00;;;;;;10431568;28;20560;-55
2021/07/22 11:09:08;;;;;;;7.47;6.70;;;22.90;67.10;;;;;;10430912;28;20044;-55
2021/07/22 11:14:31;;;;;;;7.47;5.97;;;22.90;67.00;;;;;;10448591;28;20727;-56
2021/07/22 11:19:32;;;;;;;7.07;5.85;;;22.90;67.20;;;;;;10450247;28;20048;-56
2021/07/22 11:24:34;;;;;;;7.85;6.15;;;22.90;67.00;;;;;;10452737;28;20458;-52
2021/07/22 11:29:35;;;;;;;9.00;6.47;;;22.90;66.90;;;;;;10448194;28;20068;-56
2021/07/22 11:34:39;;;;;;;7.60;6.18;;;22.90;67.00;;;;;;10435444;28;20044;-53
2021/07/22 11:39:43;;;;;;;8.73;6.05;;;22.90;66.90;;;;;;10446849;28;20044;-54
2021/07/22 11:44:43;;;;;;;7.50;5.45;;;23.00;66.90;;;;;;10447591;28;20025;-54
2021/07/22 11:49:44;;;;;;;8.32;5.78;;;23.00;67.20;;;;;;10447364;28;20462;-54
2021/07/22 11:55:06;;;;;;;7.78;5.93;;;23.00;67.10;;;;;;10447041;28;20021;-48
2021/07/22 12:00:19;;;;;;;7.20;5.28;;;23.00;66.90;;;;;;10444405;28;20033;-47
2021/07/22 12:05:26;;;;;;;7.30;5.53;;;23.00;66.80;;;;;;10448053;28;20037;-49
2021/07/22 12:10:29;;;;;;;7.43;5.80;;;23.00;66.90;;;;;;10429914;28;20037;-47
2021/07/22 12:15:31;;;;;;;6.35;4.80;;;23.10;67.10;;;;;;10430298;28;20025;-49
2021/07/22 12:20:33;;;;;;;7.45;5.80;;;23.10;66.80;;;;;;10412558;28;20127;-51
2021/07/22 12:25:34;;;;;;;6.55;5.35;;;23.10;66.70;;;;;;10447813;28;20447;-52
2021/07/22 12:30:34;;;;;;;6.53;5.60;;;23.10;66.80;;;;;;10448749;28;20116;-47
2021/07/22 12:35:40;;;;;;;7.07;5.47;;;23.10;66.90;;;;;;10453958;28;20455;-51
2021/07/22 12:40:57;;;;;;;6.43;5.78;;;23.10;66.60;;;;;;10453673;28;20037;-53
2021/07/22 12:46:16;;;;;;;6.60;5.55;;;23.20;66.60;;;;;;10453043;28;20040;-53
2021/07/22 12:51:18;;;;;;;;;;;23.20;66.50;;;;;;10451820;28;20064;-52
2021/07/22 12:56:20;;;;;;;5.95;5.20;;;23.20;66.50;;;;;;10435612;28;20357;-48
2021/07/22 13:01:25;;;;;;;7.05;4.97;;;23.30;66.50;;;;;;10453328;28;20027;-50
2021/07/22 13:06:26;;;;;;;5.95;5.20;;;23.20;66.40;;;;;;10453231;28;20082;-48
2021/07/22 13:11:27;;;;;;;5.00;4.35;;;23.30;66.40;;;;;;10452548;28;20036;-47
2021/07/22 13:16:27;;;;;;;6.85;4.90;;;23.20;66.40;;;;;;10452562;28;20112;-49
2021/07/22 13:21:28;;;;;;;8.88;5.15;;;23.30;66.40;;;;;;10454669;28;20401;-49
2021/07/22 13:26:29;;;;;;;7.90;6.25;;;23.20;66.20;;;;;;10452786;28;20445;-50
2021/07/22 13:31:30;;;;;;;7.47;5.63;;;23.30;66.50;;;;;;10434607;28;20104;-52
2021/07/22 13:36:31;;;;;;;6.50;5.10;;;23.30;66.30;;;;;;10434661;28;20378;-48
2021/07/22 13:41:32;;;;;;;6.65;5.70;;;23.30;66.20;;;;;;10450809;28;20124;-46
2021/07/22 13:46:32;;;;;;;5.75;5.10;;;23.30;66.20;;;;;;10452099;28;20692;-47
2021/07/22 13:51:33;;;;;;;6.45;5.32;;;23.30;66.20;;;;;;10433194;28;20631;-47
2021/07/22 13:56:34;;;;;;;6.57;5.43;;;23.30;66.20;;;;;;10437690;28;20098;-48
2021/07/22 14:01:34;;;;;;;6.80;5.50;;;23.30;66.20;;;;;;10451707;28;20064;-47
2021/07/22 14:06:35;;;;;;;6.55;5.85;;;23.30;66.10;;;;;;10435524;28;20040;-47
2021/07/22 14:11:36;;;;;;;6.53;5.32;;;23.30;66.00;;;;;;10450976;28;20036;-48
2021/07/22 14:16:37;;;;;;;6.32;5.15;;;23.30;66.00;;;;;;10451070;28;20116;-47
2021/07/22 14:21:38;;;;;;;6.60;5.20;;;23.30;66.00;;;;;;10456511;28;20060;-48
2021/07/22 14:26:39;;;;;;;5.07;4.57;;;23.30;66.00;;;;;;10449879;28;20111;-50
2021/07/22 14:31:40;;;;;;;6.10;4.80;;;23.30;66.00;;;;;;10438470;28;20140;-53
2021/07/22 14:36:40;;;;;;;6.82;5.88;;;23.30;66.00;;;;;;10448804;28;20090;-48
2021/07/22 14:41:44;;;;;;;6.75;5.47;;;23.30;65.90;;;;;;10461391;28;20087;-47
2021/07/22 14:46:45;;;;;;;8.68;5.38;;;23.30;65.80;;;;;;10456729;28;20064;-50
2021/07/22 14:51:46;;;;;;;6.28;5.05;;;23.30;66.00;;;;;;10456392;28;20410;-49
2021/07/22 14:56:47;;;;;;;5.63;4.82;;;23.30;66.00;;;;;;10445871;28;20302;-51
2021/07/22 15:01:47;;;;;;;6.28;5.05;;;23.30;65.70;;;;;;10426720;28;20106;-53
2021/07/22 15:06:48;;;;;;;5.20;4.65;;;23.30;65.70;;;;;;10444485;28;20116;-48
2021/07/22 15:11:48;;;;;;;6.28;5.22;;;23.30;65.70;;;;;;10437560;28;20176;-46
2021/07/22 15:16:49;;;;;;;5.75;4.85;;;23.30;65.80;;;;;;10446315;28;20400;-47
2021/07/22 15:21:53;;;;;;;6.72;4.80;;;23.30;65.70;;;;;;10450330;28;20116;-50
2021/07/22 15:26:54;;;;;;;6.40;4.78;;;23.30;65.70;;;;;;10444918;28;20089;-51
2021/07/22 15:31:54;;;;;;;7.13;5.38;;;23.30;65.90;;;;;;10446465;28;20085;-51
2021/07/22 15:36:55;;;;;;;7.95;5.43;;;23.30;65.70;;;;;;10447563;28;20044;-50
2021/07/22 15:41:56;;;;;;;6.53;5.20;;;23.30;65.70;;;;;;10447687;28;20041;-49
2021/07/22 15:46:57;;;;;;;7.85;4.88;;;23.30;65.60;;;;;;10447973;28;20056;-51
2021/07/22 15:51:57;;;;;;;7.38;5.18;;;23.30;65.70;;;;;;10447459;28;20037;-50
2021/07/22 15:57:00;;;;;;;10.65;6.18;;;23.30;65.60;;;;;;10444040;28;20056;-49
2021/07/22 16:02:04;;;;;;;8.68;4.75;;;23.30;65.50;;;;;;10448226;28;20068;-52
2021/07/22 16:07:07;;;;;;;15.05;5.78;;;23.30;66.10;;;;;;10432916;28;20172;-47
2021/07/22 16:12:08;;;;;;;11.10;5.93;;;23.30;66.30;;;;;;10454834;28;20033;-49
2021/07/22 16:17:09;;;;;;;15.48;6.85;;;23.40;67.20;;;;;;10455833;28;20036;-52
2021/07/22 16:22:10;;;;;;;14.50;6.28;;;23.40;67.50;;;;;;10462156;28;20025;-52
2021/07/22 16:27:10;;;;;;;12.88;6.53;;;23.40;67.40;;;;;;10436959;28;20114;-51
2021/07/22 16:32:11;;;;;;;12.95;7.25;;;23.40;67.70;;;;;;10437178;28;20111;-51
2021/07/22 16:37:12;;;;;;;18.58;7.25;;;23.40;67.50;;;;;;10440708;28;20036;-55
2021/07/22 16:42:13;;;;;;;19.02;7.22;;;23.40;67.00;;;;;;10453804;28;20140;-52
2021/07/22 16:47:14;;;;;;;19.20;7.32;;;23.40;67.10;;;;;;10436430;28;20041;-53
2021/07/22 16:52:14;;;;;;;23.08;8.52;;;23.40;67.10;;;;;;10445959;28;20065;-52
2021/07/22 16:57:16;;;;;;;14.95;6.68;;;23.40;67.00;;;;;;10452613;28;20037;-52
2021/07/22 17:02:17;;;;;;;13.68;6.50;;;23.40;66.60;;;;;;10454032;28;20045;-54
2021/07/22 17:07:18;;;;;;;23.63;6.47;;;23.40;66.60;;;;;;10453656;28;20143;-54
2021/07/22 17:12:18;;;;;;;17.60;7.25;;;23.40;66.60;;;;;;10453768;28;20128;-55
2021/07/22 17:17:19;;;;;;;14.07;6.30;;;23.40;66.60;;;;;;10453309;28;20087;-54
2021/07/22 17:22:21;;;;;;;14.75;6.68;;;23.40;66.50;;;;;;10453597;28;20036;-54
2021/07/22 17:27:21;;;;;;;11.95;6.57;;;23.40;66.30;;;;;;10435827;28;20045;-54
2021/07/22 17:32:22;;;;;;;12.82;6.43;;;23.40;66.40;;;;;;10453182;28;20033;-52
2021/07/22 17:37:23;;;;;;;10.90;5.93;;;23.40;66.30;;;;;;10452804;28;20516;-53
2021/07/22 17:42:23;;;;;;;11.25;6.57;;;23.40;66.30;;;;;;10434461;28;20485;-55
2021/07/22 17:47:24;;;;;;;7.90;5.25;;;23.40;66.00;;;;;;10435412;28;20144;-55
2021/07/22 17:52:25;;;;;;;8.27;5.80;;;23.40;66.00;;;;;;10441823;28;20060;-55
2021/07/22 17:57:25;;;;;;;10.30;5.75;;;23.40;66.00;;;;;;10451742;28;20044;-57
2021/07/22 18:02:26;;;;;;;6.78;4.97;;;23.40;66.00;;;;;;10451716;28;20460;-57
2021/07/22 18:07:27;;;;;;;9.30;5.63;;;23.40;66.00;;;;;;10451557;28;20068;-57
2021/07/22 18:12:28;;;;;;;12.00;6.25;;;23.40;65.90;;;;;;10450901;28;20107;-56
2021/07/22 18:17:28;;;;;;;8.00;4.75;;;23.40;65.90;;;;;;10450414;28;20056;-56
2021/07/22 18:22:30;;;;;;;8.38;5.65;;;23.40;65.80;;;;;;10451236;28;20107;-57
2021/07/22 18:27:30;;;;;;;9.30;5.60;;;23.40;65.80;;;;;;10449118;28;20121;-54
2021/07/22 18:33:08;;;;;;;10.15;5.40;;;23.40;65.90;;;;;;10450053;28;20481;-56
2021/07/22 18:38:10;;;;;;;9.90;5.47;;;23.40;65.90;;;;;;10446854;28;20067;-55
2021/07/22 18:43:11;;;;;;;8.30;5.28;;;23.30;65.80;;;;;;10449099;28;20041;-56
2021/07/22 18:48:11;;;;;;;8.13;5.70;;;23.30;65.80;;;;;;10448441;28;20032;-55
2021/07/22 18:53:12;;;;;;;7.90;4.55;;;23.40;65.80;;;;;;10448640;28;20520;-54
2021/07/22 18:58:16;;;;;;;6.78;5.15;;;23.40;65.90;;;;;;10448569;28;20123;-57
2021/07/22 19:03:17;;;;;;;8.15;4.75;;;23.40;66.00;;;;;;10429453;28;20029;-57
2021/07/22 19:08:17;;;;;;;10.48;5.15;;;23.40;66.00;;;;;;10448231;28;20036;-57
2021/07/22 19:13:20;;;;;;;8.18;5.22;;;23.40;66.00;;;;;;10447916;28;20036;-57
2021/07/22 19:18:21;;;;;;;7.88;5.53;;;23.40;65.90;;;;;;10430501;28;20120;-56
2021/07/22 19:23:22;;;;;;;11.02;5.30;;;23.40;66.00;;;;;;10454450;28;20505;-56
2021/07/22 19:28:23;;;;;;;7.35;5.15;;;23.30;65.70;;;;;;10448324;28;20036;-56
2021/07/22 19:33:25;;;;;;;9.95;5.22;;;23.40;65.90;;;;;;10448595;28;20029;-56
2021/07/22 19:38:29;;;;;;;8.52;4.75;;;23.30;65.70;;;;;;10444464;28;20056;-56
2021/07/22 19:43:30;;;;;;;8.88;5.18;;;23.30;65.50;;;;;;10456416;28;20079;-57
2021/07/22 19:48:30;;;;;;;7.45;5.05;;;23.30;65.50;;;;;;10455214;28;20131;-56
2021/07/22 19:53:33;;;;;;;7.38;4.95;;;23.30;65.50;;;;;;10453047;28;20033;-56
2021/07/22 19:58:33;;;;;;;7.32;4.95;;;23.30;65.50;;;;;;10455337;28;20115;-57
2021/07/22 20:03:35;;;;;;;6.47;4.97;;;23.30;65.40;;;;;;10456537;28;20568;-57
2021/07/22 20:08:36;;;;;;;5.97;4.75;;;23.30;65.40;;;;;;10455642;28;20024;-56
2021/07/22 20:13:38;;;;;;;7.05;5.13;;;23.30;65.40;;;;;;10454739;28;20112;-56
2021/07/22 20:18:38;;;;;;;8.27;5.05;;;23.30;65.50;;;;;;10455783;28;20033;-57
2021/07/22 20:23:39;;;;;;;6.15;4.57;;;23.30;65.50;;;;;;10461205;28;20033;-57
2021/07/22 20:28:40;;;;;;;7.90;5.85;;;23.30;65.40;;;;;;10455466;28;20762;-57
2021/07/22 20:33:40;;;;;;;6.57;4.60;;;23.30;65.30;;;;;;10445470;28;20033;-55
2021/07/22 20:38:41;;;;;;;7.00;5.28;;;23.30;65.10;;;;;;10455511;28;20045;-58
2021/07/22 20:43:42;;;;;;;8.10;4.90;;;23.30;65.10;;;;;;10461220;28;20075;-57
2021/07/22 20:48:42;;;;;;;7.70;4.80;;;23.30;65.20;;;;;;10461283;28;20039;-57
2021/07/22 20:53:43;;;;;;;6.60;4.78;;;23.30;65.10;;;;;;10460426;28;20079;-57
2021/07/22 20:58:44;;;;;;;5.80;4.65;;;23.30;65.10;;;;;;10442890;28;20032;-56
2021/07/22 21:03:44;;;;;;;8.32;4.88;;;23.30;65.10;;;;;;10447183;28;20064;-57
2021/07/22 21:08:45;;;;;;;5.10;4.20;;;23.20;65.00;;;;;;10460084;28;20022;-57
2021/07/22 21:13:46;;;;;;;6.32;4.80;;;23.30;65.20;;;;;;10460122;28;20098;-57
2021/07/22 21:18:47;;;;;;;6.13;5.00;;;23.20;65.10;;;;;;10460311;28;20094;-57
2021/07/22 21:23:51;;;;;;;7.00;4.75;;;23.20;65.10;;;;;;10465965;28;20115;-58
2021/07/22 21:28:53;;;;;;;6.63;4.40;;;23.20;65.10;;;;;;10459745;28;20036;-57
2021/07/22 21:33:54;;;;;;;6.95;4.13;;;23.20;64.90;;;;;;10459426;28;20067;-57
2021/07/22 21:38:54;;;;;;;4.60;4.03;;;23.20;65.00;;;;;;10459445;28;20448;-57
2021/07/22 21:43:55;;;;;;;8.77;3.97;;;23.20;64.90;;;;;;10459473;28;20421;-58
2021/07/22 21:48:56;;;;;;;5.50;4.15;;;23.20;65.00;;;;;;10458892;28;20041;-57
2021/07/22 21:53:57;;;;;;;5.65;4.10;;;23.20;65.10;;;;;;10459035;28;20475;-57
2021/07/22 21:58:58;;;;;;;5.28;4.30;;;23.20;65.00;;;;;;10458507;28;20036;-57
2021/07/22 22:03:58;;;;;;;5.18;3.83;;;23.20;65.00;;;;;;10457485;28;20363;-57
2021/07/22 22:09:00;;;;;;;4.72;3.88;;;23.20;65.00;;;;;;10458028;28;20075;-57
2021/07/22 22:14:03;;;;;;;5.57;4.20;;;23.20;65.00;;;;;;10440515;28;20029;-57
2021/07/22 22:19:05;;;;;;;5.18;4.40;;;23.20;65.10;;;;;;10458335;28;20040;-57
2021/07/22 22:24:06;;;;;;;5.07;4.03;;;23.10;65.00;;;;;;10463770;28;20033;-57
2021/07/22 22:29:07;;;;;;;5.95;4.13;;;23.20;65.10;;;;;;10457474;28;20258;-57
2021/07/22 22:34:07;;;;;;;4.80;4.10;;;23.20;64.90;;;;;;10457412;28;20477;-57
2021/07/22 22:39:08;;;;;;;4.47;3.95;;;23.20;64.90;;;;;;10456729;28;20048;-56
2021/07/22 22:44:09;;;;;;;6.68;4.70;;;23.20;64.90;;;;;;10439393;28;20037;-57
2021/07/22 22:49:11;;;;;;;5.25;4.07;;;23.10;64.80;;;;;;10456733;28;20036;-57
2021/07/22 22:54:12;;;;;;;6.32;4.35;;;23.10;64.80;;;;;;10456475;28;20535;-57
2021/07/22 22:59:12;;;;;;;5.07;3.63;;;23.10;64.80;;;;;;10456440;28;20163;-58
2021/07/22 23:04:13;;;;;;;5.45;3.97;;;23.10;64.70;;;;;;10456377;28;20508;-57
2021/07/22 23:09:14;;;;;;;5.15;4.55;;;23.10;64.70;;;;;;10438230;28;20065;-57
2021/07/22 23:14:14;;;;;;;4.30;3.70;;;23.10;64.60;;;;;;10455342;28;20493;-56
2021/07/22 23:19:15;;;;;;;5.05;4.25;;;23.10;64.60;;;;;;10455956;28;20060;-57
2021/07/22 23:24:16;;;;;;;4.65;4.15;;;23.10;64.50;;;;;;10462129;28;20474;-57
2021/07/22 23:29:17;;;;;;;4.88;3.50;;;23.10;64.50;;;;;;10455575;28;20057;-57
2021/07/22 23:34:17;;;;;;;4.72;4.03;;;23.10;64.40;;;;;;10455480;28;20434;-56
2021/07/22 23:39:18;;;;;;;4.65;4.13;;;23.10;64.40;;;;;;10455253;28;20132;-57
2021/07/22 23:44:19;;;;;;;5.15;4.63;;;23.10;64.30;;;;;;10455214;28;20472;-57
2021/07/22 23:49:19;;;;;;;5.47;3.95;;;23.10;64.20;;;;;;10455348;28;20033;-57
2021/07/22 23:54:20;;;;;;;4.95;4.00;;;23.10;64.10;;;;;;10455241;28;20509;-57
2021/07/22 23:59:21;;;;;;;6.57;4.38;;;23.10;64.20;;;;;;10454812;28;20056;-57
